aviador You're here:

WBKL Decoded Metar

LABUAN in MALAYSIA
Report Time2017-08-18 16:00:00
UTC Time2017-08-18 16:29:52
Flight Rules vfr VFR
WindCalm
Visibility9999 m
Phenomena:N/A
Clouds:Few 012 Hf
Scattered 140 Hf
Broken 290 Hf
Expected CloudBase > 1,200 ft AGL from Temp-Dew spread
Ceiling29,000 ft
Temp27°C (ISA +12)
Dew Point24°C (84% RH)
Heat Index30.1°C
QNH1011 hPa
Density Alt1,962 ft
Elevation98 ft
Report Wrong Elevation
Raw Report
METAR WBKL 181600Z 00000KT 9999 FEW012 SCT140 BKN290 27/24 Q1011=

Extra information for WBKL:More info

Metar Taf Metar & Taf Last 4 Metars F.Rules Stats Wind Profile Meteogram Temp Stats Airport Information Weather charts Add Link Nearby VenuesMetar ALERT Operation Metar Decoded Social comments